Time,TemperatureF,DewpointF,PressureIn,WindDirection,WindDirectionDegrees,WindSpeedMPH,WindSpeedGustMPH,Humidity,HourlyPrecipIn,Conditions,Clouds,dailyrainin,SolarRadiationWatts/m^2,SoftwareType,DateUTC
2013-01-17 00:02:00,52.0,14.0,-100.00,ENE,58,15.0,27.0,22,0.00,,,0.00,0.000000,,2013-01-17 08:02:00,
2013-01-17 00:22:00,51.0,12.0,-100.00,NE,54,18.0,30.0,21,0.00,,,0.00,0.000000,,2013-01-17 08:22:00,
2013-01-17 00:32:00,51.0,12.0,-100.00,NE,54,18.0,30.0,21,0.00,,,0.00,0.000000,,2013-01-17 08:32:00,
2013-01-17 00:43:00,51.0,12.0,-100.00,NE,54,18.0,30.0,21,0.00,,,0.00,0.000000,,2013-01-17 08:43:00,
2013-01-17 00:52:00,51.0,12.0,-100.00,NE,54,18.0,30.0,21,0.00,,,0.00,0.000000,,2013-01-17 08:52:00,
2013-01-17 01:02:00,51.0,12.0,-100.00,NE,54,18.0,30.0,21,0.00,,,0.00,0.000000,,2013-01-17 09:02:00,
2013-01-17 01:33:00,53.0,14.0,-100.00,NE,49,15.0,30.0,21,0.00,,,0.00,0.000000,,2013-01-17 09:33:00,
2013-01-17 01:42:00,53.0,14.0,-100.00,NE,49,15.0,30.0,21,0.00,,,0.00,0.000000,,2013-01-17 09:42:00,
2013-01-17 01:52:00,53.0,14.0,-100.00,NE,49,15.0,30.0,21,0.00,,,0.00,0.000000,,2013-01-17 09:52:00,
2013-01-17 02:02:00,53.0,14.0,-100.00,NE,49,15.0,30.0,21,0.00,,,0.00,0.000000,,2013-01-17 10:02:00,
2013-01-17 02:33:00,51.0,11.0,-100.00,NE,47,16.0,33.0,20,0.00,,,-99.99,0.000000,,2013-01-17 10:33:00,
2013-01-17 02:43:00,51.0,11.0,-100.00,NE,47,16.0,33.0,20,0.00,,,-99.99,0.000000,,2013-01-17 10:43:00,
2013-01-17 02:53:00,51.0,11.0,-100.00,NE,47,16.0,33.0,20,0.00,,,-99.99,0.000000,,2013-01-17 10:53:00,
2013-01-17 03:02:00,51.0,11.0,-100.00,NE,47,16.0,33.0,20,0.00,,,-99.99,0.000000,,2013-01-17 11:02:00,
2013-01-17 03:23:00,51.0,11.0,-100.00,NE,52,14.0,29.0,20,0.00,,,-99.99,0.000000,,2013-01-17 11:23:00,
2013-01-17 03:33:00,51.0,11.0,-100.00,NE,52,14.0,29.0,20,0.00,,,-99.99,0.000000,,2013-01-17 11:33:00,
2013-01-17 03:43:00,51.0,11.0,-100.00,NE,52,14.0,29.0,20,0.00,,,-99.99,0.000000,,2013-01-17 11:43:00,
2013-01-17 03:53:00,51.0,11.0,-100.00,NE,52,14.0,29.0,20,0.00,,,-99.99,0.000000,,2013-01-17 11:53:00,
2013-01-17 04:02:00,51.0,11.0,-100.00,NE,52,14.0,29.0,20,0.00,,,-99.99,0.000000,,2013-01-17 12:02:00,
2013-01-17 04:23:00,51.0,10.0,-100.00,NE,45,15.0,30.0,19,0.00,,,0.00,0.000000,,2013-01-17 12:23:00,
2013-01-17 04:33:00,51.0,10.0,-100.00,NE,45,15.0,30.0,19,0.00,,,0.00,0.000000,,2013-01-17 12:33:00,
2013-01-17 04:43:00,51.0,10.0,-100.00,NE,45,15.0,30.0,19,0.00,,,0.00,0.000000,,2013-01-17 12:43:00,
2013-01-17 04:53:00,51.0,10.0,-100.00,NE,45,15.0,30.0,19,0.00,,,0.00,0.000000,,2013-01-17 12:53:00,
2013-01-17 05:02:00,51.0,10.0,-100.00,NE,45,15.0,30.0,19,0.00,,,0.00,0.000000,,2013-01-17 13:02:00,
2013-01-17 05:33:00,51.0,9.0,-100.00,NE,42,14.0,28.0,18,0.00,,,-99.99,0.000000,,2013-01-17 13:33:00,
2013-01-17 05:43:00,51.0,9.0,-100.00,NE,42,14.0,28.0,18,0.00,,,-99.99,0.000000,,2013-01-17 13:43:00,
2013-01-17 05:53:00,51.0,9.0,-100.00,NE,42,14.0,28.0,18,0.00,,,-99.99,0.000000,,2013-01-17 13:53:00,
2013-01-17 06:02:00,51.0,9.0,-100.00,NE,42,14.0,28.0,18,0.00,,,-99.99,0.000000,,2013-01-17 14:02:00,
2013-01-17 06:33:00,50.0,11.0,-100.00,NE,35,15.0,32.0,20,0.00,,,0.00,0.000000,,2013-01-17 14:33:00,
2013-01-17 06:43:00,50.0,11.0,-100.00,NE,35,15.0,32.0,20,0.00,,,0.00,0.000000,,2013-01-17 14:43:00,
2013-01-17 06:53:00,50.0,11.0,-100.00,NE,35,15.0,32.0,20,0.00,,,0.00,0.000000,,2013-01-17 14:53:00,
2013-01-17 07:02:00,50.0,11.0,-100.00,NE,35,15.0,32.0,20,0.00,,,0.00,0.000000,,2013-01-17 15:02:00,
2013-01-17 07:33:00,51.0,12.0,-100.00,NE,39,15.0,32.0,21,0.00,,,0.00,0.000000,,2013-01-17 15:33:00,
2013-01-17 07:43:00,51.0,12.0,-100.00,NE,39,15.0,32.0,21,0.00,,,0.00,0.000000,,2013-01-17 15:43:00,
2013-01-17 07:53:00,51.0,12.0,-100.00,NE,39,15.0,32.0,21,0.00,,,0.00,0.000000,,2013-01-17 15:53:00,
2013-01-17 08:02:00,51.0,12.0,-100.00,NE,39,15.0,32.0,21,0.00,,,0.00,0.000000,,2013-01-17 16:02:00,
2013-01-17 08:33:00,52.0,11.0,-100.00,NE,42,16.0,36.0,19,0.00,,,0.00,32.000000,,2013-01-17 16:33:00,
2013-01-17 08:44:00,52.0,11.0,-100.00,NE,42,16.0,36.0,19,0.00,,,0.00,32.000000,,2013-01-17 16:44:00,
2013-01-17 08:53:00,52.0,11.0,-100.00,NE,42,16.0,36.0,19,0.00,,,0.00,32.000000,,2013-01-17 16:53:00,
2013-01-17 09:02:00,52.0,11.0,-100.00,NE,42,16.0,36.0,19,0.00,,,0.00,32.000000,,2013-01-17 17:02:00,
2013-01-17 09:03:00,56.0,13.0,-100.00,NE,46,17.0,34.0,18,0.00,,,0.00,202.000000,,2013-01-17 17:03:00,
2013-01-17 09:33:00,56.0,13.0,-100.00,NE,46,17.0,34.0,18,0.00,,,0.00,202.000000,,2013-01-17 17:33:00,
2013-01-17 09:43:00,56.0,13.0,-100.00,NE,46,17.0,34.0,18,0.00,,,0.00,202.000000,,2013-01-17 17:43:00,
2013-01-17 09:53:00,56.0,13.0,-100.00,NE,46,17.0,34.0,18,0.00,,,0.00,202.000000,,2013-01-17 17:53:00,
2013-01-17 10:23:00,56.0,10.0,-100.00,NE,47,18.0,34.0,16,0.00,,,-99.99,338.000000,,2013-01-17 18:23:00,
2013-01-17 10:34:00,56.0,10.0,-100.00,NE,47,18.0,34.0,16,0.00,,,-99.99,338.000000,,2013-01-17 18:34:00,
2013-01-17 10:44:00,56.0,10.0,-100.00,NE,47,18.0,34.0,16,0.00,,,-99.99,338.000000,,2013-01-17 18:44:00,
2013-01-17 10:53:00,56.0,10.0,-100.00,NE,47,18.0,34.0,16,0.00,,,-99.99,338.000000,,2013-01-17 18:53:00,
2013-01-17 11:02:00,56.0,10.0,-100.00,NE,47,18.0,34.0,16,0.00,,,-99.99,338.000000,,2013-01-17 19:02:00,
2013-01-17 13:34:00,62.0,12.0,-100.00,NE,49,13.0,31.0,14,-99.99,,,-99.99,390.000000,,2013-01-17 21:34:00,
2013-01-17 13:43:00,62.0,12.0,-100.00,NE,49,13.0,31.0,14,-99.99,,,-99.99,390.000000,,2013-01-17 21:43:00,
2013-01-17 13:53:00,62.0,12.0,-100.00,NE,49,13.0,31.0,14,-99.99,,,-99.99,390.000000,,2013-01-17 21:53:00,
2013-01-17 14:02:00,62.0,12.0,-100.00,NE,49,13.0,31.0,14,-99.99,,,-99.99,390.000000,,2013-01-17 22:02:00,
2013-01-17 14:23:00,64.0,10.0,-100.00,ENE,69,12.0,23.0,12,0.00,,,0.00,272.000000,,2013-01-17 22:23:00,
2013-01-17 14:33:00,64.0,10.0,-100.00,ENE,69,12.0,23.0,12,0.00,,,0.00,272.000000,,2013-01-17 22:33:00,
2013-01-17 14:43:00,64.0,10.0,-100.00,ENE,69,12.0,23.0,12,0.00,,,0.00,272.000000,,2013-01-17 22:43:00,
2013-01-17 14:52:00,64.0,10.0,-100.00,ENE,69,12.0,23.0,12,0.00,,,0.00,272.000000,,2013-01-17 22:52:00,
2013-01-17 15:02:00,64.0,10.0,-100.00,ENE,69,12.0,23.0,12,0.00,,,0.00,272.000000,,2013-01-17 23:02:00,
2013-01-17 15:33:00,63.0,11.0,-100.00,East,86,13.0,22.0,13,0.00,,,0.00,127.000000,,2013-01-17 23:33:00,
2013-01-17 15:43:00,63.0,11.0,-100.00,East,86,13.0,22.0,13,0.00,,,0.00,127.000000,,2013-01-17 23:43:00,
2013-01-17 15:53:00,63.0,11.0,-100.00,East,86,13.0,22.0,13,0.00,,,0.00,127.000000,,2013-01-17 23:53:00,
2013-01-17 16:02:00,63.0,11.0,-100.00,East,86,13.0,22.0,13,0.00,,,0.00,127.000000,,2013-01-18 00:02:00,
2013-01-17 16:23:00,59.0,10.0,-100.00,NE,49,9.0,25.0,14,0.00,,,0.00,0.000000,,2013-01-18 00:23:00,
2013-01-17 16:33:00,59.0,10.0,-100.00,NE,49,9.0,25.0,14,0.00,,,0.00,0.000000,,2013-01-18 00:33:00,
2013-01-17 16:43:00,59.0,10.0,-100.00,NE,49,9.0,25.0,14,0.00,,,0.00,0.000000,,2013-01-18 00:43:00,
2013-01-17 16:52:00,59.0,10.0,-100.00,NE,49,9.0,25.0,14,0.00,,,0.00,0.000000,,2013-01-18 00:52:00,
2013-01-17 17:02:00,59.0,10.0,-100.00,NE,49,9.0,25.0,14,0.00,,,0.00,0.000000,,2013-01-18 01:02:00,
2013-01-17 17:33:00,54.0,10.0,-100.00,ENE,69,10.0,17.0,17,0.00,,,0.00,0.000000,,2013-01-18 01:33:00,
2013-01-17 17:43:00,54.0,10.0,-100.00,ENE,69,10.0,17.0,17,0.00,,,0.00,0.000000,,2013-01-18 01:43:00,
2013-01-17 17:52:00,54.0,10.0,-100.00,ENE,69,10.0,17.0,17,0.00,,,0.00,0.000000,,2013-01-18 01:52:00,
2013-01-17 18:02:00,54.0,10.0,-100.00,ENE,69,10.0,17.0,17,0.00,,,0.00,0.000000,,2013-01-18 02:02:00,
2013-01-17 18:33:00,53.0,12.0,-100.00,NE,48,6.0,14.0,19,0.00,,,0.00,0.000000,,2013-01-18 02:33:00,
2013-01-17 18:43:00,53.0,12.0,-100.00,NE,48,6.0,14.0,19,0.00,,,0.00,0.000000,,2013-01-18 02:43:00,
2013-01-17 18:53:00,53.0,12.0,-100.00,NE,48,6.0,14.0,19,0.00,,,0.00,0.000000,,2013-01-18 02:53:00,
2013-01-17 19:02:00,53.0,12.0,-100.00,NE,48,6.0,14.0,19,0.00,,,0.00,0.000000,,2013-01-18 03:02:00,
2013-01-17 19:33:00,55.0,12.0,-100.00,ENE,57,8.0,14.0,18,0.00,,,0.00,0.000000,,2013-01-18 03:33:00,
2013-01-17 19:43:00,55.0,12.0,-100.00,ENE,57,8.0,14.0,18,0.00,,,0.00,0.000000,,2013-01-18 03:43:00,
2013-01-17 19:52:00,55.0,12.0,-100.00,ENE,57,8.0,14.0,18,0.00,,,0.00,0.000000,,2013-01-18 03:52:00,
2013-01-17 20:02:00,55.0,12.0,-100.00,ENE,57,8.0,14.0,18,0.00,,,0.00,0.000000,,2013-01-18 04:02:00,
2013-01-17 20:03:00,53.0,11.0,-100.00,ENE,68,8.0,14.0,18,0.00,,,0.00,0.000000,,2013-01-18 04:03:00,
2013-01-17 20:33:00,53.0,11.0,-100.00,ENE,68,8.0,14.0,18,0.00,,,0.00,0.000000,,2013-01-18 04:33:00,
2013-01-17 20:42:00,53.0,11.0,-100.00,ENE,68,8.0,14.0,18,0.00,,,0.00,0.000000,,2013-01-18 04:42:00,
2013-01-17 20:53:00,53.0,11.0,-100.00,ENE,68,8.0,14.0,18,0.00,,,0.00,0.000000,,2013-01-18 04:53:00,
2013-01-17 21:22:00,54.0,10.0,-100.00,ENE,68,8.0,19.0,17,0.00,,,0.00,0.000000,,2013-01-18 05:22:00,
2013-01-17 21:33:00,54.0,10.0,-100.00,ENE,68,8.0,19.0,17,0.00,,,0.00,0.000000,,2013-01-18 05:33:00,
2013-01-17 21:43:00,54.0,10.0,-100.00,ENE,68,8.0,19.0,17,0.00,,,0.00,0.000000,,2013-01-18 05:43:00,
2013-01-17 21:53:00,54.0,10.0,-100.00,ENE,68,8.0,19.0,17,0.00,,,0.00,0.000000,,2013-01-18 05:53:00,
2013-01-17 22:02:00,54.0,10.0,-100.00,ENE,68,8.0,19.0,17,0.00,,,0.00,0.000000,,2013-01-18 06:02:00,
2013-01-17 22:33:00,54.0,11.0,-100.00,ENE,73,8.0,15.0,18,0.00,,,0.00,0.000000,,2013-01-18 06:33:00,
2013-01-17 22:43:00,54.0,11.0,-100.00,ENE,73,8.0,15.0,18,0.00,,,0.00,0.000000,,2013-01-18 06:43:00,
2013-01-17 22:52:00,54.0,11.0,-100.00,ENE,73,8.0,15.0,18,0.00,,,0.00,0.000000,,2013-01-18 06:52:00,
2013-01-17 23:02:00,54.0,11.0,-100.00,ENE,73,8.0,15.0,18,0.00,,,0.00,0.000000,,2013-01-18 07:02:00,
2013-01-17 23:33:00,53.0,11.0,-100.00,ENE,64,11.0,17.0,18,0.00,,,0.00,0.000000,,2013-01-18 07:33:00,
2013-01-17 23:42:00,53.0,11.0,-100.00,ENE,64,11.0,17.0,18,0.00,,,0.00,0.000000,,2013-01-18 07:42:00,
2013-01-17 23:52:00,53.0,11.0,-100.00,ENE,64,11.0,17.0,18,0.00,,,0.00,0.000000,,2013-01-18 07:52:00,